sensor_id;sensor_type;location;lat;lon;timestamp;pressure;altitude;pressure_sealevel;temperature;humidity
28683;BME280;15862;43.062;25.626;2022-08-21T00:00:18;99390.25;;;23.54;100.00
28683;BME280;15862;43.062;25.626;2022-08-21T00:02:48;99388.50;;;23.28;100.00
28683;BME280;15862;43.062;25.626;2022-08-21T00:05:14;99396.19;;;22.98;100.00
28683;BME280;15862;43.062;25.626;2022-08-21T00:07:39;99403.31;;;22.78;100.00
28683;BME280;15862;43.062;25.626;2022-08-21T00:10:05;99403.25;;;22.52;100.00
28683;BME280;15862;43.062;25.626;2022-08-21T00:12:31;99408.28;;;22.40;100.00
28683;BME280;15862;43.062;25.626;2022-08-21T00:14:56;99415.78;;;22.31;100.00
28683;BME280;15862;43.062;25.626;2022-08-21T00:17:21;99409.84;;;22.16;100.00
28683;BME280;15862;43.062;25.626;2022-08-21T00:19:47;99421.34;;;22.08;100.00
28683;BME280;15862;43.062;25.626;2022-08-21T00:22:12;99422.53;;;22.06;100.00
28683;BME280;15862;43.062;25.626;2022-08-21T00:24:38;99412.78;;;21.93;100.00
28683;BME280;15862;43.062;25.626;2022-08-21T00:27:03;99403.06;;;21.94;100.00
28683;BME280;15862;43.062;25.626;2022-08-21T00:29:28;99411.56;;;21.96;100.00
28683;BME280;15862;43.062;25.626;2022-08-21T00:31:54;99408.59;;;22.05;100.00
28683;BME280;15862;43.062;25.626;2022-08-21T00:34:19;99416.44;;;21.99;100.00
28683;BME280;15862;43.062;25.626;2022-08-21T00:36:44;99430.97;;;21.95;100.00
28683;BME280;15862;43.062;25.626;2022-08-21T00:39:10;99427.09;;;21.78;100.00
28683;BME280;15862;43.062;25.626;2022-08-21T00:41:36;99426.41;;;21.63;100.00
28683;BME280;15862;43.062;25.626;2022-08-21T00:44:02;99414.63;;;21.59;100.00
28683;BME280;15862;43.062;25.626;2022-08-21T00:46:28;99415.03;;;21.62;100.00
28683;BME280;15862;43.062;25.626;2022-08-21T00:48:54;99402.72;;;21.63;100.00
28683;BME280;15862;43.062;25.626;2022-08-21T00:51:21;99393.69;;;21.72;100.00
28683;BME280;15862;43.062;25.626;2022-08-21T00:53:51;99396.31;;;21.72;100.00
28683;BME280;15862;43.062;25.626;2022-08-21T00:56:18;99387.56;;;21.65;100.00
28683;BME280;15862;43.062;25.626;2022-08-21T00:58:44;99396.91;;;21.74;100.00
28683;BME280;15862;43.062;25.626;2022-08-21T01:01:10;99394.63;;;21.58;100.00
28683;BME280;15862;43.062;25.626;2022-08-21T01:03:36;99371.38;;;21.61;100.00
28683;BME280;15862;43.062;25.626;2022-08-21T01:06:02;99358.81;;;21.57;100.00
28683;BME280;15862;43.062;25.626;2022-08-21T01:08:29;99357.72;;;21.52;100.00
28683;BME280;15862;43.062;25.626;2022-08-21T01:10:55;99346.16;;;21.40;100.00
28683;BME280;15862;43.062;25.626;2022-08-21T01:13:21;99341.91;;;21.39;100.00
28683;BME280;15862;43.062;25.626;2022-08-21T01:15:48;99338.16;;;21.54;100.00
28683;BME280;15862;43.062;25.626;2022-08-21T01:18:15;99321.13;;;21.50;100.00
28683;BME280;15862;43.062;25.626;2022-08-21T01:20:42;99314.63;;;21.46;100.00
28683;BME280;15862;43.062;25.626;2022-08-21T01:23:08;99308.53;;;21.39;100.00
28683;BME280;15862;43.062;25.626;2022-08-21T01:25:33;99292.31;;;21.29;100.00
28683;BME280;15862;43.062;25.626;2022-08-21T01:28:00;99296.78;;;21.35;100.00
28683;BME280;15862;43.062;25.626;2022-08-21T01:30:27;99282.03;;;21.34;100.00
28683;BME280;15862;43.062;25.626;2022-08-21T01:32:53;99284.66;;;21.34;100.00
28683;BME280;15862;43.062;25.626;2022-08-21T01:35:19;99289.50;;;21.37;100.00
28683;BME280;15862;43.062;25.626;2022-08-21T01:37:45;99305.72;;;21.47;100.00
28683;BME280;15862;43.062;25.626;2022-08-21T01:40:11;99308.72;;;21.38;100.00
28683;BME280;15862;43.062;25.626;2022-08-21T01:42:37;99310.94;;;21.41;100.00
28683;BME280;15862;43.062;25.626;2022-08-21T01:45:03;99308.53;;;21.39;100.00
28683;BME280;15862;43.062;25.626;2022-08-21T01:47:29;99305.53;;;21.49;100.00
28683;BME280;15862;43.062;25.626;2022-08-21T01:49:54;99301.28;;;21.48;100.00
28683;BME280;15862;43.062;25.626;2022-08-21T01:52:20;99315.31;;;21.55;100.00
28683;BME280;15862;43.062;25.626;2022-08-21T01:54:45;99322.75;;;21.51;100.00
28683;BME280;15862;43.062;25.626;2022-08-21T01:57:11;99324.75;;;21.49;100.00
28683;BME280;15862;43.062;25.626;2022-08-21T01:59:36;99314.66;;;21.52;100.00
28683;BME280;15862;43.062;25.626;2022-08-21T02:02:02;99314.25;;;21.49;100.00
28683;BME280;15862;43.062;25.626;2022-08-21T02:04:28;99302.31;;;21.47;100.00
28683;BME280;15862;43.062;25.626;2022-08-21T02:06:53;99303.25;;;21.39;100.00
28683;BME280;15862;43.062;25.626;2022-08-21T02:09:19;99295.94;;;21.28;100.00
28683;BME280;15862;43.062;25.626;2022-08-21T02:11:46;99281.59;;;21.31;100.00
28683;BME280;15862;43.062;25.626;2022-08-21T02:14:12;99280.59;;;21.32;100.00
28683;BME280;15862;43.062;25.626;2022-08-21T02:16:39;99283.66;;;21.35;100.00
28683;BME280;15862;43.062;25.626;2022-08-21T02:19:05;99286.69;;;21.39;100.00
28683;BME280;15862;43.062;25.626;2022-08-21T02:21:30;99287.28;;;21.41;100.00
28683;BME280;15862;43.062;25.626;2022-08-21T02:23:56;99284.47;;;21.42;100.00
28683;BME280;15862;43.062;25.626;2022-08-21T02:26:21;99286.09;;;21.43;100.00
28683;BME280;15862;43.062;25.626;2022-08-21T02:28:47;99289.31;;;21.39;100.00
28683;BME280;15862;43.062;25.626;2022-08-21T02:31:13;99290.69;;;21.35;100.00
28683;BME280;15862;43.062;25.626;2022-08-21T02:33:38;99289.13;;;21.40;100.00
28683;BME280;15862;43.062;25.626;2022-08-21T02:36:05;99304.50;;;21.43;100.00
28683;BME280;15862;43.062;25.626;2022-08-21T02:38:31;99306.72;;;21.46;100.00
28683;BME280;15862;43.062;25.626;2022-08-21T02:40:58;99311.19;;;21.46;100.00
28683;BME280;15862;43.062;25.626;2022-08-21T02:43:24;99309.78;;;21.43;100.00
28683;BME280;15862;43.062;25.626;2022-08-21T02:45:49;99299.25;;;21.43;100.00
28683;BME280;15862;43.062;25.626;2022-08-21T02:48:16;99301.03;;;21.36;100.00
28683;BME280;15862;43.062;25.626;2022-08-21T02:50:44;99296.59;;;21.37;100.00
28683;BME280;15862;43.062;25.626;2022-08-21T02:53:11;99305.28;;;21.37;100.00
28683;BME280;15862;43.062;25.626;2022-08-21T02:55:38;99302.84;;;21.36;100.00
28683;BME280;15862;43.062;25.626;2022-08-21T02:58:05;99306.31;;;21.36;100.00
28683;BME280;15862;43.062;25.626;2022-08-21T03:00:31;99309.94;;;21.35;100.00
28683;BME280;15862;43.062;25.626;2022-08-21T03:02:57;99304.69;;;21.35;100.00
28683;BME280;15862;43.062;25.626;2022-08-21T03:05:23;99308.56;;;21.46;100.00
28683;BME280;15862;43.062;25.626;2022-08-21T03:07:49;99309.34;;;21.46;100.00
28683;BME280;15862;43.062;25.626;2022-08-21T03:10:14;99302.06;;;21.42;100.00
28683;BME280;15862;43.062;25.626;2022-08-21T03:12:40;99294.75;;;21.37;100.00
28683;BME280;15862;43.062;25.626;2022-08-21T03:15:06;99291.13;;;21.38;100.00
28683;BME280;15862;43.062;25.626;2022-08-21T03:17:32;99305.28;;;21.37;100.00
28683;BME280;15862;43.062;25.626;2022-08-21T03:19:58;99305.28;;;21.37;100.00
28683;BME280;15862;43.062;25.626;2022-08-21T03:22:23;99305.69;;;21.34;100.00
28683;BME280;15862;43.062;25.626;2022-08-21T03:24:49;99307.47;;;21.34;100.00
28683;BME280;15862;43.062;25.626;2022-08-21T03:27:14;99310.53;;;21.37;100.00
28683;BME280;15862;43.062;25.626;2022-08-21T03:29:40;99320.28;;;21.43;100.00
28683;BME280;15862;43.062;25.626;2022-08-21T03:32:06;99322.72;;;21.45;100.00
28683;BME280;15862;43.062;25.626;2022-08-21T03:34:34;99325.91;;;21.40;100.00
28683;BME280;15862;43.062;25.626;2022-08-21T03:36:59;99327.75;;;21.40;100.00
28683;BME280;15862;43.062;25.626;2022-08-21T03:39:25;99332.22;;;21.46;100.00
28683;BME280;15862;43.062;25.626;2022-08-21T03:41:50;99333.28;;;21.51;100.00
28683;BME280;15862;43.062;25.626;2022-08-21T03:44:16;99336.69;;;21.52;100.00
28683;BME280;15862;43.062;25.626;2022-08-21T03:46:41;99344.25;;;21.55;100.00
28683;BME280;15862;43.062;25.626;2022-08-21T03:49:06;99352.53;;;21.58;100.00
28683;BME280;15862;43.062;25.626;2022-08-21T03:51:32;99358.59;;;21.58;100.00
28683;BME280;15862;43.062;25.626;2022-08-21T03:53:58;99348.50;;;21.62;100.00
28683;BME280;15862;43.062;25.626;2022-08-21T03:56:24;99349.38;;;21.75;100.00
28683;BME280;15862;43.062;25.626;2022-08-21T03:58:49;99356.91;;;21.85;100.00
28683;BME280;15862;43.062;25.626;2022-08-21T04:01:14;99361.97;;;21.93;100.00
28683;BME280;15862;43.062;25.626;2022-08-21T04:03:40;99371.88;;;21.91;100.00
28683;BME280;15862;43.062;25.626;2022-08-21T04:06:05;99362.81;;;22.00;100.00
28683;BME280;15862;43.062;25.626;2022-08-21T04:08:31;99362.63;;;22.08;100.00
28683;BME280;15862;43.062;25.626;2022-08-21T04:10:56;99358.19;;;22.02;100.00
28683;BME280;15862;43.062;25.626;2022-08-21T04:13:23;99365.47;;;22.13;100.00
28683;BME280;15862;43.062;25.626;2022-08-21T04:15:48;99360.63;;;22.16;100.00
28683;BME280;15862;43.062;25.626;2022-08-21T04:18:14;99368.31;;;22.18;100.00
28683;BME280;15862;43.062;25.626;2022-08-21T04:20:40;99365.09;;;22.22;100.00
28683;BME280;15862;43.062;25.626;2022-08-21T04:23:07;99371.63;;;22.33;100.00
28683;BME280;15862;43.062;25.626;2022-08-21T04:25:32;99360.66;;;22.29;100.00
28683;BME280;15862;43.062;25.626;2022-08-21T04:27:57;99354.84;;;22.40;100.00
28683;BME280;15862;43.062;25.626;2022-08-21T04:30:23;99353.00;;;22.40;100.00
28683;BME280;15862;43.062;25.626;2022-08-21T04:32:49;99347.97;;;22.45;100.00
28683;BME280;15862;43.062;25.626;2022-08-21T04:35:16;99348.16;;;22.37;100.00
28683;BME280;15862;43.062;25.626;2022-08-21T04:37:41;99354.22;;;22.44;100.00
28683;BME280;15862;43.062;25.626;2022-08-21T04:40:07;99359.31;;;22.52;100.00
28683;BME280;15862;43.062;25.626;2022-08-21T04:42:40;99360.91;;;22.53;100.00
28683;BME280;15862;43.062;25.626;2022-08-21T04:45:05;99346.94;;;22.59;100.00
28683;BME280;15862;43.062;25.626;2022-08-21T04:47:30;99347.75;;;22.66;100.00
28683;BME280;15862;43.062;25.626;2022-08-21T04:49:56;99356.28;;;22.75;100.00
28683;BME280;15862;43.062;25.626;2022-08-21T04:52:21;99364.56;;;22.78;100.00
28683;BME280;15862;43.062;25.626;2022-08-21T04:54:47;99362.97;;;22.71;100.00
28683;BME280;15862;43.062;25.626;2022-08-21T04:57:13;99371.88;;;22.76;100.00
28683;BME280;15862;43.062;25.626;2022-08-21T04:59:41;99364.97;;;22.75;100.00
28683;BME280;15862;43.062;25.626;2022-08-21T05:02:08;99364.38;;;22.86;100.00
28683;BME280;15862;43.062;25.626;2022-08-21T05:04:34;99359.69;;;22.95;100.00
28683;BME280;15862;43.062;25.626;2022-08-21T05:07:02;99365.59;;;22.97;100.00
28683;BME280;15862;43.062;25.626;2022-08-21T05:09:29;99363.56;;;23.05;100.00
28683;BME280;15862;43.062;25.626;2022-08-21T05:11:55;99372.47;;;23.04;100.00
28683;BME280;15862;43.062;25.626;2022-08-21T05:14:21;99370.47;;;23.06;100.00
28683;BME280;15862;43.062;25.626;2022-08-21T05:16:46;99358.69;;;23.09;100.00
28683;BME280;15862;43.062;25.626;2022-08-21T05:19:11;99351.41;;;23.04;100.00
28683;BME280;15862;43.062;25.626;2022-08-21T05:21:38;99348.75;;;23.17;100.00
28683;BME280;15862;43.062;25.626;2022-08-21T05:24:03;99348.94;;;23.22;100.00
28683;BME280;15862;43.062;25.626;2022-08-21T05:26:29;99347.09;;;23.29;100.00
28683;BME280;15862;43.062;25.626;2022-08-21T05:28:54;99355.81;;;23.36;100.00
28683;BME280;15862;43.062;25.626;2022-08-21T05:31:20;99347.66;;;23.50;100.00
28683;BME280;15862;43.062;25.626;2022-08-21T05:33:45;99342.34;;;23.63;100.00
28683;BME280;15862;43.062;25.626;2022-08-21T05:36:10;99343.75;;;23.66;100.00
28683;BME280;15862;43.062;25.626;2022-08-21T05:38:36;99341.50;;;23.76;100.00
28683;BME280;15862;43.062;25.626;2022-08-21T05:41:01;99330.19;;;23.99;100.00
28683;BME280;15862;43.062;25.626;2022-08-21T05:43:26;99328.22;;;24.26;100.00
28683;BME280;15862;43.062;25.626;2022-08-21T05:45:51;99326.72;;;24.36;100.00
28683;BME280;15862;43.062;25.626;2022-08-21T05:48:19;99308.59;;;24.46;100.00
28683;BME280;15862;43.062;25.626;2022-08-21T05:50:45;99316.25;;;24.54;100.00
28683;BME280;15862;43.062;25.626;2022-08-21T05:53:11;99315.59;;;24.59;100.00
28683;BME280;15862;43.062;25.626;2022-08-21T05:55:37;99315.75;;;24.64;100.00
28683;BME280;15862;43.062;25.626;2022-08-21T05:58:03;99322.22;;;24.67;100.00
28683;BME280;15862;43.062;25.626;2022-08-21T06:00:28;99324.69;;;24.87;100.00
28683;BME280;15862;43.062;25.626;2022-08-21T06:02:54;99317.03;;;25.03;100.00
28683;BME280;15862;43.062;25.626;2022-08-21T06:05:19;99320.03;;;25.07;100.00
28683;BME280;15862;43.062;25.626;2022-08-21T06:07:44;99310.69;;;25.29;100.00
28683;BME280;15862;43.062;25.626;2022-08-21T06:10:10;99315.88;;;25.53;100.00
28683;BME280;15862;43.062;25.626;2022-08-21T06:12:35;99315.22;;;25.75;100.00
28683;BME280;15862;43.062;25.626;2022-08-21T06:15:01;99309.59;;;26.01;100.00
28683;BME280;15862;43.062;25.626;2022-08-21T06:17:26;99311.81;;;26.16;100.00
28683;BME280;15862;43.062;25.626;2022-08-21T06:19:52;99324.22;;;26.44;100.00
28683;BME280;15862;43.062;25.626;2022-08-21T06:22:17;99310.38;;;26.42;100.00
28683;BME280;15862;43.062;25.626;2022-08-21T06:24:43;99309.63;;;26.65;100.00
28683;BME280;15862;43.062;25.626;2022-08-21T06:27:08;99304.44;;;26.93;100.00
28683;BME280;15862;43.062;25.626;2022-08-21T06:29:34;99311.84;;;27.13;100.00
28683;BME280;15862;43.062;25.626;2022-08-21T06:32:00;99303.72;;;27.43;100.00
28683;BME280;15862;43.062;25.626;2022-08-21T06:34:25;99299.59;;;27.75;100.00
28683;BME280;15862;43.062;25.626;2022-08-21T06:36:50;99307.72;;;27.96;100.00
28683;BME280;15862;43.062;25.626;2022-08-21T06:39:16;99305.81;;;28.08;96.92
28683;BME280;15862;43.062;25.626;2022-08-21T06:41:41;99305.63;;;28.26;96.17
28683;BME280;15862;43.062;25.626;2022-08-21T06:44:06;99300.56;;;28.41;95.86
28683;BME280;15862;43.062;25.626;2022-08-21T06:46:32;99302.50;;;28.62;91.85
28683;BME280;15862;43.062;25.626;2022-08-21T06:48:57;99306.09;;;28.23;95.92
28683;BME280;15862;43.062;25.626;2022-08-21T06:51:23;99302.22;;;27.86;97.73
28683;BME280;15862;43.062;25.626;2022-08-21T06:53:50;99304.00;;;27.69;100.00
28683;BME280;15862;43.062;25.626;2022-08-21T06:56:15;99310.75;;;27.88;98.08
28683;BME280;15862;43.062;25.626;2022-08-21T06:58:41;99310.09;;;27.81;99.74
28683;BME280;15862;43.062;25.626;2022-08-21T07:01:06;99300.88;;;27.72;98.37
28683;BME280;15862;43.062;25.626;2022-08-21T07:03:35;99302.88;;;27.65;99.31
28683;BME280;15862;43.062;25.626;2022-08-21T07:06:03;99297.44;;;27.72;100.00
28683;BME280;15862;43.062;25.626;2022-08-21T07:08:29;99276.31;;;27.65;100.00
28683;BME280;15862;43.062;25.626;2022-08-21T07:10:55;99299.56;;;27.86;100.00
28683;BME280;15862;43.062;25.626;2022-08-21T07:13:21;99286.66;;;27.78;99.42
28683;BME280;15862;43.062;25.626;2022-08-21T07:15:46;99284.41;;;28.14;97.31
28683;BME280;15862;43.062;25.626;2022-08-21T07:18:12;99278.19;;;28.09;97.70
28683;BME280;15862;43.062;25.626;2022-08-21T07:20:38;99275.13;;;28.17;96.70
28683;BME280;15862;43.062;25.626;2022-08-21T07:23:05;99274.19;;;28.23;96.06
28683;BME280;15862;43.062;25.626;2022-08-21T07:25:31;99270.56;;;28.29;94.59
28683;BME280;15862;43.062;25.626;2022-08-21T07:27:56;99264.94;;;28.42;92.73
28683;BME280;15862;43.062;25.626;2022-08-21T07:30:22;99268.81;;;28.51;92.53
28683;BME280;15862;43.062;25.626;2022-08-21T07:32:47;99271.06;;;28.59;92.06
28683;BME280;15862;43.062;25.626;2022-08-21T07:35:14;99269.59;;;28.67;89.79
28683;BME280;15862;43.062;25.626;2022-08-21T07:37:40;99261.94;;;28.38;88.15
28683;BME280;15862;43.062;25.626;2022-08-21T07:40:05;99263.56;;;28.72;88.18
28683;BME280;15862;43.062;25.626;2022-08-21T07:42:30;99259.13;;;28.61;87.58
28683;BME280;15862;43.062;25.626;2022-08-21T07:44:56;99255.09;;;28.59;87.45
28683;BME280;15862;43.062;25.626;2022-08-21T07:47:21;99260.91;;;28.72;86.55
28683;BME280;15862;43.062;25.626;2022-08-21T07:49:46;99262.66;;;28.99;84.55
28683;BME280;15862;43.062;25.626;2022-08-21T07:52:12;99259.88;;;29.32;83.61
28683;BME280;15862;43.062;25.626;2022-08-21T07:54:37;99259.81;;;29.27;82.28
28683;BME280;15862;43.062;25.626;2022-08-21T07:57:02;99260.53;;;29.01;83.70
28683;BME280;15862;43.062;25.626;2022-08-21T07:59:28;99255.56;;;29.26;81.54
28683;BME280;15862;43.062;25.626;2022-08-21T08:01:53;99247.00;;;29.24;81.87
28683;BME280;15862;43.062;25.626;2022-08-21T08:04:19;99249.22;;;29.32;80.21
28683;BME280;15862;43.062;25.626;2022-08-21T08:06:44;99258.03;;;29.11;80.83
28683;BME280;15862;43.062;25.626;2022-08-21T08:09:10;99248.06;;;29.02;81.87
28683;BME280;15862;43.062;25.626;2022-08-21T08:11:36;99251.38;;;29.14;80.11
28683;BME280;15862;43.062;25.626;2022-08-21T08:14:03;99237.50;;;29.12;81.17
28683;BME280;15862;43.062;25.626;2022-08-21T08:16:29;99239.06;;;29.08;81.71
28683;BME280;15862;43.062;25.626;2022-08-21T08:18:54;99241.31;;;29.16;80.41
28683;BME280;15862;43.062;25.626;2022-08-21T08:21:20;99236.97;;;29.10;82.14
28683;BME280;15862;43.062;25.626;2022-08-21T08:23:46;99240.75;;;29.14;80.94
28683;BME280;15862;43.062;25.626;2022-08-21T08:26:12;99226.38;;;29.57;80.28
28683;BME280;15862;43.062;25.626;2022-08-21T08:28:37;99226.38;;;29.84;79.11
28683;BME280;15862;43.062;25.626;2022-08-21T08:31:02;99234.34;;;29.79;77.13
28683;BME280;15862;43.062;25.626;2022-08-21T08:33:28;99231.16;;;30.39;73.64
28683;BME280;15862;43.062;25.626;2022-08-21T08:35:54;99230.47;;;30.95;70.40
28683;BME280;15862;43.062;25.626;2022-08-21T08:38:20;99220.53;;;31.42;66.31
28683;BME280;15862;43.062;25.626;2022-08-21T08:40:58;99219.06;;;32.50;60.82
28683;BME280;15862;43.062;25.626;2022-08-21T08:43:25;99222.41;;;33.20;55.80
28683;BME280;15862;43.062;25.626;2022-08-21T08:45:52;99225.66;;;33.65;55.02
28683;BME280;15862;43.062;25.626;2022-08-21T08:48:31;99215.91;;;34.51;50.89
28683;BME280;15862;43.062;25.626;2022-08-21T08:51:00;99215.50;;;37.01;45.27
28683;BME280;15862;43.062;25.626;2022-08-21T08:53:28;99215.91;;;37.84;42.08
28683;BME280;15862;43.062;25.626;2022-08-21T08:55:55;99209.59;;;38.32;41.46
28683;BME280;15862;43.062;25.626;2022-08-21T08:58:25;99217.22;;;38.91;39.31
28683;BME280;15862;43.062;25.626;2022-08-21T09:00:52;99202.28;;;39.66;37.96
28683;BME280;15862;43.062;25.626;2022-08-21T09:03:18;99190.59;;;40.87;36.72
28683;BME280;15862;43.062;25.626;2022-08-21T09:05:46;99188.72;;;40.79;35.10
28683;BME280;15862;43.062;25.626;2022-08-21T09:11:00;99187.25;;;39.26;36.67
28683;BME280;15862;43.062;25.626;2022-08-21T09:16:13;99181.47;;;37.54;39.62
28683;BME280;15862;43.062;25.626;2022-08-21T09:24:02;99154.56;;;37.14;40.24
28683;BME280;15862;43.062;25.626;2022-08-21T09:26:37;99152.69;;;36.61;42.05
28683;BME280;15862;43.062;25.626;2022-08-21T09:29:05;99153.22;;;36.89;40.94
28683;BME280;15862;43.062;25.626;2022-08-21T09:31:33;99152.78;;;37.09;39.96
28683;BME280;15862;43.062;25.626;2022-08-21T09:34:05;99150.22;;;37.53;39.69
28683;BME280;15862;43.062;25.626;2022-08-21T09:39:03;99146.38;;;37.89;37.95
28683;BME280;15862;43.062;25.626;2022-08-21T09:41:30;99135.47;;;37.94;38.53
28683;BME280;15862;43.062;25.626;2022-08-21T09:43:56;99132.50;;;39.12;36.46
28683;BME280;15862;43.062;25.626;2022-08-21T09:46:23;99135.53;;;38.63;36.72
28683;BME280;15862;43.062;25.626;2022-08-21T09:48:50;99130.16;;;38.33;36.70
28683;BME280;15862;43.062;25.626;2022-08-21T09:51:21;99130.91;;;40.04;33.76
28683;BME280;15862;43.062;25.626;2022-08-21T09:56:32;99126.59;;;40.11;32.88
28683;BME280;15862;43.062;25.626;2022-08-21T09:59:24;99131.09;;;39.99;33.52
28683;BME280;15862;43.062;25.626;2022-08-21T10:01:51;99127.72;;;40.85;31.92
28683;BME280;15862;43.062;25.626;2022-08-21T10:04:19;99124.28;;;41.25;29.98
28683;BME280;15862;43.062;25.626;2022-08-21T10:06:45;99114.22;;;41.66;30.58
28683;BME280;15862;43.062;25.626;2022-08-21T10:09:11;99114.56;;;40.75;31.11
28683;BME280;15862;43.062;25.626;2022-08-21T10:11:37;99108.97;;;39.89;31.28
28683;BME280;15862;43.062;25.626;2022-08-21T10:47:28;99086.06;;;39.10;32.89
28683;BME280;15862;43.062;25.626;2022-08-21T10:55:22;99074.88;;;38.39;33.44
28683;BME280;15862;43.062;25.626;2022-08-21T10:57:50;99070.84;;;38.67;32.76
28683;BME280;15862;43.062;25.626;2022-08-21T11:00:17;99063.91;;;38.44;32.63
28683;BME280;15862;43.062;25.626;2022-08-21T11:05:20;99054.38;;;39.36;31.47
28683;BME280;15862;43.062;25.626;2022-08-21T11:08:02;99053.56;;;39.27;31.59
28683;BME280;15862;43.062;25.626;2022-08-21T11:10:40;99058.03;;;39.57;30.94
28683;BME280;15862;43.062;25.626;2022-08-21T11:13:16;99057.75;;;40.04;30.70
28683;BME280;15862;43.062;25.626;2022-08-21T11:23:11;99037.19;;;41.71;28.31
28683;BME280;15862;43.062;25.626;2022-08-21T11:35:56;99029.78;;;40.20;29.42
28683;BME280;15862;43.062;25.626;2022-08-21T11:49:02;98996.25;;;39.42;29.47
28683;BME280;15862;43.062;25.626;2022-08-21T11:51:33;98993.88;;;39.57;28.72
28683;BME280;15862;43.062;25.626;2022-08-21T11:54:13;98997.19;;;39.63;29.31
28683;BME280;15862;43.062;25.626;2022-08-21T11:56:46;98988.81;;;40.30;28.69
28683;BME280;15862;43.062;25.626;2022-08-21T11:59:30;98974.50;;;40.50;27.49
28683;BME280;15862;43.062;25.626;2022-08-21T12:01:57;98987.88;;;40.96;27.71
28683;BME280;15862;43.062;25.626;2022-08-21T12:04:30;98993.84;;;41.74;26.97
28683;BME280;15862;43.062;25.626;2022-08-21T12:07:08;98975.50;;;41.39;26.63
28683;BME280;15862;43.062;25.626;2022-08-21T12:09:35;98985.94;;;41.37;26.62
28683;BME280;15862;43.062;25.626;2022-08-21T12:14:35;98978.88;;;41.57;26.26
28683;BME280;15862;43.062;25.626;2022-08-21T12:17:04;98979.56;;;41.65;26.43
28683;BME280;15862;43.062;25.626;2022-08-21T12:19:30;98978.94;;;41.16;26.90
28683;BME280;15862;43.062;25.626;2022-08-21T12:26:54;98974.41;;;38.45;29.08
28683;BME280;15862;43.062;25.626;2022-08-21T12:31:50;98986.44;;;37.10;31.69
28683;BME280;15862;43.062;25.626;2022-08-21T12:34:15;98977.41;;;36.44;32.54
28683;BME280;15862;43.062;25.626;2022-08-21T12:36:45;98969.22;;;35.68;33.32
28683;BME280;15862;43.062;25.626;2022-08-21T12:39:18;98966.66;;;35.13;33.38
28683;BME280;15862;43.062;25.626;2022-08-21T12:41:51;98967.03;;;34.70;35.04
28683;BME280;15862;43.062;25.626;2022-08-21T12:44:22;98975.22;;;34.18;35.02
28683;BME280;15862;43.062;25.626;2022-08-21T12:46:56;98966.78;;;33.83;35.84
28683;BME280;15862;43.062;25.626;2022-08-21T12:49:35;98969.50;;;33.49;36.76
28683;BME280;15862;43.062;25.626;2022-08-21T12:52:19;98963.28;;;33.26;38.23
28683;BME280;15862;43.062;25.626;2022-08-21T12:54:45;98977.47;;;33.26;37.85
28683;BME280;15862;43.062;25.626;2022-08-21T12:57:18;98995.13;;;33.27;39.86
28683;BME280;15862;43.062;25.626;2022-08-21T12:59:44;98998.75;;;33.13;38.52
28683;BME280;15862;43.062;25.626;2022-08-21T13:02:19;99001.03;;;32.86;39.58
28683;BME280;15862;43.062;25.626;2022-08-21T13:04:47;99021.53;;;32.57;40.13
28683;BME280;15862;43.062;25.626;2022-08-21T13:07:15;99011.59;;;31.50;44.16
28683;BME280;15862;43.062;25.626;2022-08-21T13:09:55;99002.94;;;30.63;48.01
28683;BME280;15862;43.062;25.626;2022-08-21T13:12:21;99007.97;;;29.94;52.60
28683;BME280;15862;43.062;25.626;2022-08-21T13:14:48;99004.88;;;29.39;56.95
28683;BME280;15862;43.062;25.626;2022-08-21T13:17:18;99011.53;;;29.10;59.72
28683;BME280;15862;43.062;25.626;2022-08-21T13:20:05;99004.28;;;28.32;66.04
28683;BME280;15862;43.062;25.626;2022-08-21T13:22:29;99010.31;;;27.89;69.95
28683;BME280;15862;43.062;25.626;2022-08-21T13:24:55;99014.63;;;27.74;73.45
28683;BME280;15862;43.062;25.626;2022-08-21T13:27:28;98994.34;;;27.35;74.50
28683;BME280;15862;43.062;25.626;2022-08-21T13:30:01;99017.19;;;27.20;77.57
28683;BME280;15862;43.062;25.626;2022-08-21T13:32:26;99018.28;;;27.08;81.64
28683;BME280;15862;43.062;25.626;2022-08-21T13:34:53;99015.19;;;26.99;83.33
28683;BME280;15862;43.062;25.626;2022-08-21T13:37:19;99019.78;;;27.04;83.81
28683;BME280;15862;43.062;25.626;2022-08-21T13:39:50;99025.28;;;27.13;83.65
28683;BME280;15862;43.062;25.626;2022-08-21T13:42:16;99025.84;;;27.15;84.05
28683;BME280;15862;43.062;25.626;2022-08-21T13:44:43;99030.00;;;27.11;84.90
28683;BME280;15862;43.062;25.626;2022-08-21T13:47:10;99035.19;;;27.18;86.33
28683;BME280;15862;43.062;25.626;2022-08-21T13:49:37;99046.41;;;26.81;98.13
28683;BME280;15862;43.062;25.626;2022-08-21T13:52:04;99049.03;;;26.53;100.00
28683;BME280;15862;43.062;25.626;2022-08-21T13:54:34;99061.75;;;26.28;100.00
28683;BME280;15862;43.062;25.626;2022-08-21T13:57:00;99065.34;;;25.99;100.00
28683;BME280;15862;43.062;25.626;2022-08-21T13:59:27;99058.13;;;25.65;100.00
28683;BME280;15862;43.062;25.626;2022-08-21T14:01:54;99052.03;;;25.42;100.00
28683;BME280;15862;43.062;25.626;2022-08-21T14:04:33;99056.47;;;25.19;100.00
28683;BME280;15862;43.062;25.626;2022-08-21T14:07:00;99060.31;;;25.05;100.00
28683;BME280;15862;43.062;25.626;2022-08-21T14:09:30;99068.38;;;24.80;100.00
28683;BME280;15862;43.062;25.626;2022-08-21T14:11:56;99068.38;;;24.63;100.00
28683;BME280;15862;43.062;25.626;2022-08-21T14:14:23;99085.34;;;24.55;100.00
28683;BME280;15862;43.062;25.626;2022-08-21T14:16:59;99096.28;;;24.59;100.00
28683;BME280;15862;43.062;25.626;2022-08-21T14:19:36;99079.00;;;24.38;100.00